createdAt,value
2022-08-19T00:00:01.864Z,24.7
2022-08-19T00:01:01.982Z,24.7
2022-08-19T00:02:02.043Z,24.7
2022-08-19T00:03:01.895Z,24.7
2022-08-19T00:04:01.792Z,24.8
2022-08-19T00:05:01.688Z,24.7
2022-08-19T00:06:01.718Z,24.9
2022-08-19T00:07:01.606Z,24.8
2022-08-19T00:08:01.432Z,24.9
2022-08-19T00:09:02.330Z,24.8
2022-08-19T00:10:02.267Z,24.8
2022-08-19T00:11:02.196Z,24.8
2022-08-19T00:12:02.107Z,24.8
2022-08-19T00:13:02.029Z,24.8
2022-08-19T00:14:01.928Z,24.8
2022-08-19T00:15:01.846Z,24.7
2022-08-19T00:16:02.062Z,24.7
2022-08-19T00:17:01.947Z,24.7
2022-08-19T00:18:01.783Z,24.7
2022-08-19T00:19:01.709Z,24.6
2022-08-19T00:20:01.542Z,24.6
2022-08-19T00:21:01.400Z,24.7
2022-08-19T00:22:02.347Z,24.6
2022-08-19T00:23:02.219Z,24.6
2022-08-19T00:24:02.108Z,24.5
2022-08-19T00:25:02.117Z,24.5
2022-08-19T00:26:02.260Z,24.5
2022-08-19T00:27:24.852Z,24.4
2022-08-19T00:28:01.578Z,24.5
2022-08-19T00:29:01.437Z,24.6
2022-08-19T00:30:02.349Z,24.4
2022-08-19T00:31:01.538Z,24.3
2022-08-19T00:32:01.431Z,24.4
2022-08-19T00:33:02.062Z,24.3
2022-08-19T00:34:01.911Z,24.4
2022-08-19T00:35:01.773Z,24.5
2022-08-19T00:36:01.612Z,24.3
2022-08-19T00:37:01.446Z,24.4
2022-08-19T00:38:01.393Z,24.4
2022-08-19T00:39:02.293Z,24.4
2022-08-19T00:40:02.234Z,24.5
2022-08-19T00:41:02.315Z,24.6
2022-08-19T00:42:02.228Z,24.7
2022-08-19T00:43:02.149Z,24.6
2022-08-19T00:44:02.036Z,24.5
2022-08-19T00:45:01.879Z,24.3
2022-08-19T00:46:02.309Z,24.4
2022-08-19T00:47:02.188Z,24.4
2022-08-19T00:48:02.095Z,24.4
2022-08-19T00:49:01.991Z,24.6
2022-08-19T00:50:01.821Z,24.4
2022-08-19T00:51:01.713Z,24.3
2022-08-19T00:52:01.573Z,24.3
2022-08-19T00:53:01.472Z,24.3
2022-08-19T00:54:01.401Z,24.2
2022-08-19T00:55:02.279Z,24.2
2022-08-19T00:56:02.175Z,24.2
2022-08-19T00:57:02.096Z,24.2
2022-08-19T00:58:01.938Z,24.1
2022-08-19T00:59:01.821Z,24.1
2022-08-19T01:00:03.005Z,24.1
2022-08-19T01:01:01.898Z,24.1
2022-08-19T01:02:01.692Z,24
2022-08-19T01:03:01.563Z,24
2022-08-19T01:04:01.474Z,24
2022-08-19T01:05:01.424Z,24.1
2022-08-19T01:06:02.289Z,24
2022-08-19T01:07:02.211Z,24
2022-08-19T01:08:02.122Z,24.1
2022-08-19T01:09:02.040Z,24.1
2022-08-19T01:10:01.871Z,24.1
2022-08-19T01:11:01.728Z,24
2022-08-19T01:12:01.607Z,23.9
2022-08-19T01:13:01.465Z,23.9
2022-08-19T01:14:01.362Z,24
2022-08-19T01:15:02.266Z,24
2022-08-19T01:16:01.405Z,24
2022-08-19T01:17:02.291Z,24
2022-08-19T01:18:02.233Z,24
2022-08-19T01:19:02.129Z,24
2022-08-19T01:20:02.024Z,23.9
2022-08-19T01:21:01.910Z,24
2022-08-19T01:22:01.811Z,23.9
2022-08-19T01:23:01.511Z,23.9
2022-08-19T01:24:01.408Z,23.9
2022-08-19T01:25:02.287Z,23.8
2022-08-19T01:26:01.731Z,23.8
2022-08-19T01:27:02.005Z,23.8
2022-08-19T01:28:02.138Z,23.8
2022-08-19T01:29:01.969Z,23.7
2022-08-19T01:30:01.868Z,23.7
2022-08-19T01:31:02.086Z,23.8
2022-08-19T01:32:02.091Z,23.8
2022-08-19T01:33:02.006Z,23.7
2022-08-19T01:34:01.911Z,23.7
2022-08-19T01:35:01.833Z,23.7
2022-08-19T01:36:01.722Z,23.7
2022-08-19T01:37:01.727Z,23.7
2022-08-19T01:38:01.620Z,23.6
2022-08-19T01:39:01.488Z,23.6
2022-08-19T01:40:01.371Z,23.6
2022-08-19T01:41:02.273Z,23.6
2022-08-19T01:42:01.903Z,23.6
2022-08-19T01:43:01.827Z,23.5
2022-08-19T01:44:03.394Z,23.5
2022-08-19T01:45:01.963Z,23.4
2022-08-19T01:46:01.793Z,23.4
2022-08-19T01:47:01.698Z,23.4
2022-08-19T01:48:01.972Z,23.4
2022-08-19T01:49:01.382Z,23.3
2022-08-19T01:50:02.329Z,23.3
2022-08-19T01:51:02.249Z,23.4
2022-08-19T01:52:02.143Z,23.4
2022-08-19T01:53:02.482Z,23.4
2022-08-19T01:54:01.555Z,23.4
2022-08-19T01:55:01.444Z,23.4
2022-08-19T01:56:02.321Z,23.4
2022-08-19T01:57:02.260Z,23.4
2022-08-19T01:58:02.185Z,23.4
2022-08-19T01:59:02.112Z,23.4
2022-08-19T02:00:02.020Z,23.4
2022-08-19T02:01:02.262Z,23.3
2022-08-19T02:02:02.294Z,23.3
2022-08-19T02:03:02.198Z,23.3
2022-08-19T02:04:02.075Z,23.2
2022-08-19T02:05:01.976Z,23.3
2022-08-19T02:06:01.844Z,23.2
2022-08-19T02:07:01.727Z,23.4
2022-08-19T02:08:01.628Z,23.4
2022-08-19T02:09:01.492Z,23.3
2022-08-19T02:10:03.109Z,23.3
2022-08-19T02:11:02.133Z,23.2
2022-08-19T02:12:01.983Z,23.2
2022-08-19T02:13:01.845Z,23.2
2022-08-19T02:14:01.700Z,23.2
2022-08-19T02:15:01.584Z,23.1
2022-08-19T02:16:01.910Z,23
2022-08-19T02:17:01.427Z,23.1
2022-08-19T02:18:02.346Z,23.2
2022-08-19T02:19:02.298Z,23.2
2022-08-19T02:20:02.189Z,23.2
2022-08-19T02:21:02.070Z,23.1
2022-08-19T02:22:01.993Z,23.1
2022-08-19T02:23:01.898Z,23.1
2022-08-19T02:24:01.811Z,23.1
2022-08-19T02:25:01.630Z,23.1
2022-08-19T02:26:01.508Z,23
2022-08-19T02:27:01.402Z,22.9
2022-08-19T02:28:02.288Z,22.9
2022-08-19T02:29:02.252Z,23
2022-08-19T02:30:02.112Z,22.9
2022-08-19T02:31:01.384Z,22.8
2022-08-19T02:32:02.265Z,22.8
2022-08-19T02:33:02.199Z,22.9
2022-08-19T02:34:02.089Z,22.9
2022-08-19T02:35:01.946Z,22.7
2022-08-19T02:36:01.923Z,22.6
2022-08-19T02:37:03.719Z,22.6
2022-08-19T02:38:01.742Z,22.7
2022-08-19T02:39:01.634Z,22.8
2022-08-19T02:40:01.548Z,22.8
2022-08-19T02:41:01.745Z,22.7
2022-08-19T02:42:01.583Z,22.7
2022-08-19T02:43:01.458Z,22.7
2022-08-19T02:44:22.321Z,22.8
2022-08-19T02:45:01.796Z,22.8
2022-08-19T02:46:02.139Z,22.7
2022-08-19T02:47:02.033Z,22.6
2022-08-19T02:48:01.938Z,22.6
2022-08-19T02:49:02.200Z,22.6
2022-08-19T02:50:02.105Z,22.6
2022-08-19T02:51:01.936Z,22.6
2022-08-19T02:52:01.841Z,22.6
2022-08-19T02:53:01.912Z,22.7
2022-08-19T02:54:01.744Z,22.6
2022-08-19T02:55:01.651Z,22.7
2022-08-19T02:56:01.487Z,22.7
2022-08-19T02:57:01.396Z,22.6
2022-08-19T02:58:02.323Z,22.7
2022-08-19T02:59:01.759Z,22.6
2022-08-19T03:00:01.676Z,22.7
2022-08-19T03:01:01.959Z,22.6
2022-08-19T03:02:02.049Z,22.7
2022-08-19T03:03:01.893Z,22.7
2022-08-19T03:04:01.777Z,22.7
2022-08-19T03:05:01.600Z,22.6
2022-08-19T03:06:01.462Z,22.7
2022-08-19T03:07:07.190Z,22.7
2022-08-19T03:08:02.126Z,22.6
2022-08-19T03:09:02.009Z,22.7
2022-08-19T03:10:01.850Z,22.6
2022-08-19T03:11:01.707Z,22.6
2022-08-19T03:12:01.585Z,22.6
2022-08-19T03:13:01.443Z,22.7
2022-08-19T03:14:01.615Z,22.7
2022-08-19T03:15:01.503Z,22.7
2022-08-19T03:16:01.794Z,22.7
2022-08-19T03:17:01.639Z,22.7
2022-08-19T03:18:01.506Z,22.7
2022-08-19T03:19:01.645Z,22.7
2022-08-19T03:20:01.640Z,22.6
2022-08-19T03:21:01.519Z,22.6
2022-08-19T03:22:01.397Z,22.6
2022-08-19T03:23:02.338Z,22.5
2022-08-19T03:24:02.215Z,22.6
2022-08-19T03:25:02.147Z,22.6
2022-08-19T03:26:03.968Z,22.6
2022-08-19T03:27:01.901Z,22.6
2022-08-19T03:28:01.744Z,22.6
2022-08-19T03:29:01.667Z,22.6
2022-08-19T03:30:01.420Z,22.6
2022-08-19T03:31:01.569Z,22.5
2022-08-19T03:32:01.420Z,22.5
2022-08-19T03:33:02.243Z,22.5
2022-08-19T03:34:02.313Z,22.5
2022-08-19T03:35:01.431Z,22.5
2022-08-19T03:36:02.329Z,22.5
2022-08-19T03:37:02.279Z,22.5
2022-08-19T03:38:02.187Z,22.6
2022-08-19T03:39:02.083Z,22.5
2022-08-19T03:40:02.010Z,22.6
2022-08-19T03:41:02.030Z,22.5
2022-08-19T03:42:30.249Z,22.5
2022-08-19T03:43:01.589Z,22.5
2022-08-19T03:44:01.827Z,22.6
2022-08-19T03:45:01.706Z,22.6
2022-08-19T03:46:01.861Z,22.6
2022-08-19T03:47:01.789Z,22.5
2022-08-19T03:48:01.672Z,22.5
2022-08-19T03:49:01.572Z,22.5
2022-08-19T03:50:01.534Z,22.5
2022-08-19T03:51:01.439Z,22.6
2022-08-19T03:52:02.337Z,22.6
2022-08-19T03:53:02.244Z,22.6
2022-08-19T03:54:02.153Z,22.5
2022-08-19T03:55:02.024Z,22.6
2022-08-19T03:56:01.926Z,22.5
2022-08-19T03:57:01.826Z,22.6
2022-08-19T03:58:01.732Z,22.6
2022-08-19T03:59:01.614Z,22.6
2022-08-19T04:00:03.884Z,22.6
2022-08-19T04:01:01.766Z,22.6
2022-08-19T04:02:01.867Z,22.6
2022-08-19T04:03:01.973Z,22.6
2022-08-19T04:04:02.248Z,22.6
2022-08-19T04:05:01.552Z,22.6
2022-08-19T04:06:01.431Z,22.6
2022-08-19T04:07:02.331Z,22.6
2022-08-19T04:08:02.236Z,22.6
2022-08-19T04:09:02.142Z,22.6
2022-08-19T04:10:02.143Z,22.6
2022-08-19T04:11:01.917Z,22.5
2022-08-19T04:12:01.627Z,22.6
2022-08-19T04:13:01.536Z,22.6
2022-08-19T04:14:01.389Z,22.5
2022-08-19T04:15:02.307Z,22.6
2022-08-19T04:16:01.534Z,22.6
2022-08-19T04:17:01.421Z,22.6
2022-08-19T04:18:02.330Z,22.6
2022-08-19T04:19:02.249Z,22.6
2022-08-19T04:20:02.208Z,22.8
2022-08-19T04:21:01.936Z,22.7
2022-08-19T04:22:01.860Z,22.6
2022-08-19T04:23:01.770Z,22.7
2022-08-19T04:24:01.674Z,22.7
2022-08-19T04:25:01.855Z,22.7
2022-08-19T04:26:01.766Z,22.8
2022-08-19T04:27:01.397Z,22.8
2022-08-19T04:28:02.324Z,22.8
2022-08-19T04:29:02.236Z,22.8
2022-08-19T04:30:02.149Z,22.9
2022-08-19T04:31:02.343Z,22.9
2022-08-19T04:32:08.371Z,22.9
2022-08-19T04:33:01.617Z,22.9
2022-08-19T04:34:03.790Z,22.9
2022-08-19T04:35:16.669Z,23
2022-08-19T04:36:01.402Z,23
2022-08-19T04:37:02.275Z,23
2022-08-19T04:38:02.180Z,23.1
2022-08-19T04:39:02.082Z,23.1
2022-08-19T04:40:01.932Z,23.1
2022-08-19T04:41:01.642Z,23.1
2022-08-19T04:42:01.545Z,23.1
2022-08-19T04:43:01.398Z,23.1
2022-08-19T04:44:04.351Z,23.1
2022-08-19T04:45:01.462Z,23.1
2022-08-19T04:46:01.605Z,23.2
2022-08-19T04:47:01.802Z,23.2
2022-08-19T04:48:20.062Z,23.2
2022-08-19T04:49:01.619Z,23.2
2022-08-19T04:50:02.093Z,23.2
2022-08-19T04:51:01.923Z,23.1
2022-08-19T04:52:01.805Z,23.2
2022-08-19T04:53:01.696Z,23.2
2022-08-19T04:54:01.532Z,23.3
2022-08-19T04:55:01.457Z,23.3
2022-08-19T04:56:02.351Z,23.2
2022-08-19T04:57:02.244Z,23.2
2022-08-19T04:58:02.181Z,23.3
2022-08-19T04:59:01.979Z,23.3
2022-08-19T05:00:01.864Z,23.3
2022-08-19T05:01:02.102Z,23.3
2022-08-19T05:02:02.162Z,23.4
2022-08-19T05:03:02.070Z,23.4
2022-08-19T05:04:02.385Z,23.4
2022-08-19T05:05:02.232Z,23.4
2022-08-19T05:06:02.168Z,23.5
2022-08-19T05:07:02.347Z,23.5
2022-08-19T05:08:02.340Z,23.6
2022-08-19T05:09:02.260Z,23.6
2022-08-19T05:10:01.413Z,23.7
2022-08-19T05:11:02.355Z,23.7
2022-08-19T05:12:02.250Z,23.6
2022-08-19T05:13:02.167Z,23.7
2022-08-19T05:14:02.055Z,23.7
2022-08-19T05:15:01.990Z,23.7
2022-08-19T05:16:02.206Z,23.7
2022-08-19T05:17:23.963Z,23.8
2022-08-19T05:18:01.710Z,23.8
2022-08-19T05:19:01.643Z,23.8
2022-08-19T05:20:01.516Z,23.8
2022-08-19T05:21:01.401Z,23.7
2022-08-19T05:22:02.322Z,23.8
2022-08-19T05:23:02.226Z,23.8
2022-08-19T05:24:01.553Z,23.8
2022-08-19T05:25:12.509Z,23.8
2022-08-19T05:26:01.665Z,24
2022-08-19T05:27:01.580Z,24
2022-08-19T05:28:01.434Z,24
2022-08-19T05:29:02.368Z,24
2022-08-19T05:30:02.287Z,24
2022-08-19T05:31:01.774Z,24
2022-08-19T05:32:01.652Z,24
2022-08-19T05:33:01.501Z,24
2022-08-19T05:34:01.428Z,24
2022-08-19T05:35:02.400Z,24.1
2022-08-19T05:36:02.269Z,24.2
2022-08-19T05:37:02.167Z,24.2
2022-08-19T05:38:02.028Z,24.3
2022-08-19T05:39:01.910Z,24.2
2022-08-19T05:40:01.855Z,24.2
2022-08-19T05:41:01.944Z,24.2
2022-08-19T05:42:01.818Z,24.2
2022-08-19T05:43:01.730Z,24.2
2022-08-19T05:44:01.600Z,24.3
2022-08-19T05:45:01.460Z,24.3
2022-08-19T05:46:01.873Z,24.3
2022-08-19T05:47:01.730Z,24.2
2022-08-19T05:48:01.737Z,24.2
2022-08-19T05:49:01.593Z,24.2
2022-08-19T05:50:01.572Z,24.2
2022-08-19T05:51:01.408Z,24.2
2022-08-19T05:52:02.422Z,24.3
2022-08-19T05:53:02.305Z,24.3
2022-08-19T05:54:02.304Z,24.3
2022-08-19T05:55:02.113Z,24.3
2022-08-19T05:56:02.135Z,24.3
2022-08-19T05:57:01.994Z,24.3
2022-08-19T05:58:01.877Z,24.4
2022-08-19T05:59:01.884Z,24.4
2022-08-19T06:00:01.701Z,24.4
2022-08-19T06:01:01.478Z,24.4
2022-08-19T06:02:01.511Z,24.4
2022-08-19T06:03:02.478Z,24.4
2022-08-19T06:04:02.093Z,24.4
2022-08-19T06:05:02.095Z,24.4
2022-08-19T06:06:01.948Z,24.5
2022-08-19T06:07:01.888Z,24.6
2022-08-19T06:08:01.846Z,24.6
2022-08-19T06:09:01.779Z,24.6
2022-08-19T06:10:01.702Z,24.5
2022-08-19T06:11:01.584Z,24.5
2022-08-19T06:12:01.402Z,24.6
2022-08-19T06:13:02.424Z,24.6
2022-08-19T06:14:02.299Z,24.6
2022-08-19T06:15:02.434Z,24.6
2022-08-19T06:16:02.213Z,24.6
2022-08-19T06:17:06.303Z,24.6
2022-08-19T06:18:02.223Z,24.6
2022-08-19T06:19:02.247Z,24.6
2022-08-19T06:20:02.095Z,24.7
2022-08-19T06:21:02.099Z,24.6
2022-08-19T06:22:01.907Z,24.6
2022-08-19T06:23:01.735Z,24.6
2022-08-19T06:24:01.752Z,24.7
2022-08-19T06:25:01.537Z,24.7
2022-08-19T06:26:01.564Z,24.7
2022-08-19T06:27:01.730Z,24.8
2022-08-19T06:28:15.474Z,24.7
2022-08-19T06:29:01.500Z,24.7
2022-08-19T06:30:01.466Z,24.8
2022-08-19T06:31:01.456Z,24.8
2022-08-19T06:32:01.467Z,24.8
2022-08-19T06:33:02.411Z,24.8
2022-08-19T06:34:02.241Z,24.8
2022-08-19T06:35:02.153Z,24.8
2022-08-19T06:36:02.137Z,24.8
2022-08-19T06:37:02.077Z,24.9
2022-08-19T06:38:02.032Z,24.9
2022-08-19T06:39:01.984Z,24.9
2022-08-19T06:40:01.912Z,24.9
2022-08-19T06:41:02.065Z,24.9
2022-08-19T06:42:01.883Z,25
2022-08-19T06:43:02.136Z,25
2022-08-19T06:44:01.933Z,25
2022-08-19T06:45:02.189Z,25
2022-08-19T06:46:02.205Z,25
2022-08-19T06:47:02.244Z,25.1
2022-08-19T06:48:01.623Z,25
2022-08-19T06:49:01.771Z,25.1
2022-08-19T06:50:03.062Z,25
2022-08-19T06:51:01.731Z,25
2022-08-19T06:52:02.095Z,25
2022-08-19T06:53:04.662Z,25.1
2022-08-19T06:54:02.039Z,25.1
2022-08-19T06:55:01.501Z,25.1
2022-08-19T06:56:01.450Z,25.2
2022-08-19T06:57:01.773Z,25.1
2022-08-19T06:58:01.606Z,25.2
2022-08-19T06:59:01.571Z,25.2
2022-08-19T07:00:01.427Z,25.2
2022-08-19T07:01:03.346Z,25.2
2022-08-19T07:02:01.877Z,25.2
2022-08-19T07:03:04.429Z,25.2
2022-08-19T07:04:01.368Z,25.2
2022-08-19T07:05:02.377Z,25.2
2022-08-19T07:06:02.260Z,25.2
2022-08-19T07:07:19.825Z,25.3
2022-08-19T07:08:04.684Z,25.3
2022-08-19T07:09:01.928Z,25.3
2022-08-19T07:10:02.833Z,25.3
2022-08-19T07:11:02.297Z,25.3
2022-08-19T07:12:01.721Z,25.4
2022-08-19T07:13:01.672Z,25.4
2022-08-19T07:14:01.526Z,25.4
2022-08-19T07:15:01.601Z,25.4
2022-08-19T07:16:01.803Z,25.5
2022-08-19T07:17:01.863Z,25.5
2022-08-19T07:18:01.857Z,25.5
2022-08-19T07:19:04.838Z,25.5
2022-08-19T07:20:05.275Z,25.5
2022-08-19T07:21:01.881Z,25.6
2022-08-19T07:22:01.823Z,25.6
2022-08-19T07:23:01.718Z,25.6
2022-08-19T07:24:03.038Z,25.6
2022-08-19T07:25:02.122Z,25.6
2022-08-19T07:27:01.879Z,25.7
2022-08-19T07:28:01.874Z,25.6
2022-08-19T07:29:01.744Z,25.7
2022-08-19T07:30:02.335Z,25.8
2022-08-19T07:31:02.017Z,25.7
2022-08-19T07:32:01.977Z,25.7
2022-08-19T07:33:03.339Z,25.8
2022-08-19T07:34:01.907Z,25.8
2022-08-19T07:35:01.955Z,25.7
2022-08-19T07:36:01.838Z,25.8
2022-08-19T07:37:01.782Z,25.9
2022-08-19T07:38:01.747Z,25.9
2022-08-19T07:39:01.592Z,25.8
2022-08-19T07:40:01.832Z,26
2022-08-19T07:41:02.297Z,26
2022-08-19T07:42:02.187Z,26
2022-08-19T07:43:02.166Z,26
2022-08-19T07:44:02.017Z,26
2022-08-19T07:45:01.953Z,26
2022-08-19T07:46:02.345Z,26.1
2022-08-19T07:47:01.516Z,26.1
2022-08-19T07:48:01.610Z,26.2
2022-08-19T07:49:02.157Z,26.1
2022-08-19T07:50:02.108Z,26.2
2022-08-19T07:51:02.000Z,26.2
2022-08-19T07:52:01.890Z,26.2
2022-08-19T07:53:01.928Z,26.2
2022-08-19T07:54:01.713Z,26.2
2022-08-19T07:55:01.697Z,26.3
2022-08-19T07:56:02.311Z,26.3
2022-08-19T07:57:02.155Z,26.3
2022-08-19T07:58:02.144Z,26.3
2022-08-19T07:59:01.435Z,26.3
2022-08-19T08:00:02.422Z,26.4
2022-08-19T08:01:01.829Z,26.4
2022-08-19T08:02:01.904Z,26.3
2022-08-19T08:03:01.844Z,26.4
2022-08-19T08:04:01.801Z,26.5
2022-08-19T08:05:01.765Z,26.5
2022-08-19T08:06:01.621Z,26.5
2022-08-19T08:07:01.552Z,26.5
2022-08-19T08:08:01.396Z,26.6
2022-08-19T08:09:02.417Z,26.6
2022-08-19T08:10:03.218Z,26.7
2022-08-19T08:11:01.695Z,26.7
2022-08-19T08:12:04.919Z,26.7
2022-08-19T08:13:08.987Z,26.7
2022-08-19T08:14:04.495Z,26.7
2022-08-19T08:15:01.637Z,26.8
2022-08-19T08:16:01.810Z,26.7
2022-08-19T08:17:01.910Z,26.7
2022-08-19T08:18:01.860Z,26.8
2022-08-19T08:19:02.064Z,26.8
2022-08-19T08:20:02.080Z,26.8
2022-08-19T08:21:02.026Z,27
2022-08-19T08:22:01.875Z,27.1
2022-08-19T08:23:01.850Z,27.1
2022-08-19T08:24:01.822Z,27.1
2022-08-19T08:25:02.446Z,27.1
2022-08-19T08:26:01.387Z,27.1
2022-08-19T08:27:01.828Z,27.1
2022-08-19T08:28:01.627Z,27.1
2022-08-19T08:29:01.581Z,27.1
2022-08-19T08:30:02.970Z,27.2
2022-08-19T08:31:01.970Z,27.3
2022-08-19T08:32:02.327Z,27.3
2022-08-19T08:33:02.623Z,27.3
2022-08-19T08:34:01.720Z,27.4
2022-08-19T08:35:01.666Z,27.4
2022-08-19T08:36:01.501Z,27.4
2022-08-19T08:37:01.988Z,27.4
2022-08-19T08:38:01.995Z,27.5
2022-08-19T08:39:01.829Z,27.5
2022-08-19T08:40:01.869Z,27.5
2022-08-19T08:41:02.173Z,27.6
2022-08-19T08:42:02.017Z,27.8
2022-08-19T08:44:01.651Z,27.9
2022-08-19T08:45:01.472Z,28.2
2022-08-19T08:46:01.871Z,28.3
2022-08-19T08:47:01.894Z,28.5
2022-08-19T08:48:01.680Z,28.6
2022-08-19T08:49:02.164Z,28.7
2022-08-19T08:50:02.256Z,28.7
2022-08-19T08:51:02.139Z,28.6
2022-08-19T08:52:01.790Z,28.6
2022-08-19T08:53:01.984Z,28.8
2022-08-19T08:54:01.971Z,28.7
2022-08-19T08:55:01.927Z,28.7
2022-08-19T08:56:01.768Z,28.8
2022-08-19T08:57:01.779Z,29.1
2022-08-19T08:58:02.797Z,28.9
2022-08-19T08:59:01.776Z,29.1
2022-08-19T09:00:01.819Z,29.4
2022-08-19T09:01:01.771Z,29.6
2022-08-19T09:02:01.713Z,29.7
2022-08-19T09:03:01.898Z,29.4
2022-08-19T09:04:02.644Z,29.5
2022-08-19T09:05:02.365Z,29.6
2022-08-19T09:06:01.470Z,29.3
2022-08-19T09:07:01.437Z,29.3
2022-08-19T09:08:02.328Z,29.1
2022-08-19T09:09:01.622Z,29.1
2022-08-19T09:10:02.115Z,29.1
2022-08-19T09:11:02.021Z,29.1
2022-08-19T09:12:01.391Z,29.1
2022-08-19T09:13:01.700Z,28.9
2022-08-19T09:14:02.130Z,28.9
2022-08-19T09:15:02.049Z,28.9
2022-08-19T09:16:02.307Z,28.7
2022-08-19T09:17:02.345Z,28.8
2022-08-19T09:18:02.179Z,28.8
2022-08-19T09:19:02.675Z,28.8
2022-08-19T09:20:01.750Z,28.8
2022-08-19T09:21:01.686Z,28.7
2022-08-19T09:22:02.204Z,28.7
2022-08-19T09:23:02.092Z,28.7
2022-08-19T09:24:03.571Z,28.8
2022-08-19T09:25:01.702Z,28.7
2022-08-19T09:26:01.664Z,28.8
2022-08-19T09:27:03.600Z,28.9
2022-08-19T09:28:02.355Z,28.9
2022-08-19T09:29:01.522Z,29.1
2022-08-19T09:30:01.335Z,29.3
2022-08-19T09:31:01.553Z,29.2
2022-08-19T09:32:01.513Z,29.2
2022-08-19T09:33:01.377Z,29.2
2022-08-19T09:34:02.377Z,29.3
2022-08-19T09:35:01.763Z,29.2
2022-08-19T09:36:01.491Z,29.2
2022-08-19T09:37:02.258Z,29.3
2022-08-19T09:38:02.221Z,29.2
2022-08-19T09:39:01.992Z,29.2
2022-08-19T09:40:02.440Z,29.3
2022-08-19T09:41:01.809Z,29.3
2022-08-19T09:42:01.823Z,29.3
2022-08-19T09:43:01.683Z,29.3
2022-08-19T09:44:01.866Z,29.3
2022-08-19T09:45:02.407Z,29.4
2022-08-19T09:46:01.422Z,29.4
2022-08-19T09:47:02.446Z,29.3
2022-08-19T09:48:02.289Z,29.4
2022-08-19T09:49:02.917Z,29.5
2022-08-19T09:50:01.555Z,29.5
2022-08-19T09:51:01.541Z,29.7
2022-08-19T09:52:01.389Z,29.5
2022-08-19T09:53:02.378Z,29.5
2022-08-19T09:54:02.217Z,29.6
2022-08-19T09:55:01.903Z,29.6
2022-08-19T09:56:01.873Z,29.7
2022-08-19T09:57:03.736Z,29.7
2022-08-19T09:58:01.398Z,29.6
2022-08-19T09:59:02.429Z,29.8
2022-08-19T10:00:02.279Z,29.8
2022-08-19T10:01:02.373Z,29.7
2022-08-19T10:02:03.767Z,29.8
2022-08-19T10:03:02.072Z,30
2022-08-19T10:04:04.391Z,30.1
2022-08-19T10:05:01.837Z,30.2
2022-08-19T10:06:01.738Z,30.1
2022-08-19T10:07:01.765Z,30
2022-08-19T10:08:01.651Z,30
2022-08-19T10:09:01.955Z,30.1
2022-08-19T10:10:02.444Z,30.1
2022-08-19T10:11:27.603Z,30.1
2022-08-19T10:12:02.487Z,30.1
2022-08-19T10:13:01.787Z,30.1
2022-08-19T10:14:01.635Z,30.1
2022-08-19T10:15:01.574Z,30.3
2022-08-19T10:16:02.136Z,30.2
2022-08-19T10:17:01.772Z,30.6
2022-08-19T10:18:01.723Z,30.8
2022-08-19T10:19:03.613Z,31.1
2022-08-19T10:20:01.809Z,31.1
2022-08-19T10:21:02.271Z,31.6
2022-08-19T10:22:01.747Z,31.6
2022-08-19T10:23:01.676Z,32
2022-08-19T10:24:01.556Z,31.9
2022-08-19T10:25:01.479Z,31.8
2022-08-19T10:26:02.418Z,32
2022-08-19T10:27:02.266Z,32.3
2022-08-19T10:28:01.557Z,32.4
2022-08-19T10:29:01.433Z,32.3
2022-08-19T10:30:02.098Z,32.2
2022-08-19T10:31:01.674Z,32.2
2022-08-19T10:32:02.564Z,32
2022-08-19T10:33:04.383Z,32.4
2022-08-19T10:34:02.228Z,32.5
2022-08-19T10:35:02.231Z,32.6
2022-08-19T10:36:01.815Z,32.5
2022-08-19T10:37:02.220Z,32.5
2022-08-19T10:38:02.564Z,32.8
2022-08-19T10:39:01.594Z,33
2022-08-19T10:40:01.558Z,32.8
2022-08-19T10:41:01.528Z,32.8
2022-08-19T10:42:01.518Z,33
2022-08-19T10:43:02.421Z,32.9
2022-08-19T10:44:03.950Z,32.9
2022-08-19T10:45:02.319Z,32.6
2022-08-19T10:46:01.431Z,32.6
2022-08-19T10:47:02.446Z,32.3
2022-08-19T10:48:02.306Z,32.4
2022-08-19T10:49:01.585Z,32.3
2022-08-19T10:50:02.359Z,31.8
2022-08-19T10:51:02.254Z,31.8
2022-08-19T10:52:02.261Z,31.6
2022-08-19T10:53:01.499Z,31.4
2022-08-19T10:54:01.458Z,31.6
2022-08-19T10:55:05.141Z,31.5
2022-08-19T10:56:01.531Z,31.6
2022-08-19T10:57:01.505Z,31.4
2022-08-19T10:58:02.839Z,31.5
2022-08-19T10:59:02.008Z,31.6
2022-08-19T11:00:02.009Z,31.8
2022-08-19T11:01:02.417Z,31.9
2022-08-19T11:02:01.625Z,32.1
2022-08-19T11:03:01.571Z,32.5
2022-08-19T11:04:01.416Z,32.5
2022-08-19T11:05:05.080Z,32.5
2022-08-19T11:06:01.414Z,32.3
2022-08-19T11:07:02.388Z,32.4
2022-08-19T11:08:02.948Z,32.1
2022-08-19T11:09:01.753Z,31.8
2022-08-19T11:10:01.742Z,32
2022-08-19T11:11:01.566Z,31.8
2022-08-19T11:12:02.683Z,32.2
2022-08-19T11:13:01.678Z,32.3
2022-08-19T11:14:01.661Z,32.1
2022-08-19T11:15:01.457Z,32.2
2022-08-19T11:16:05.257Z,32.2
2022-08-19T11:17:01.756Z,32.3
2022-08-19T11:18:01.595Z,32.3
2022-08-19T11:19:01.550Z,32.2
2022-08-19T11:20:01.427Z,32.5
2022-08-19T11:21:02.387Z,32.4
2022-08-19T11:22:02.229Z,32.2
2022-08-19T11:23:01.702Z,32.2
2022-08-19T11:24:01.437Z,32.2
2022-08-19T11:25:02.444Z,32.3
2022-08-19T11:26:02.320Z,32.2
2022-08-19T11:27:02.305Z,32.1
2022-08-19T11:28:02.107Z,32.1
2022-08-19T11:29:02.181Z,32
2022-08-19T11:30:02.098Z,32.2
2022-08-19T11:31:01.428Z,32.4
2022-08-19T11:32:02.443Z,32.3
2022-08-19T11:33:02.352Z,32.2
2022-08-19T11:34:02.341Z,32.2
2022-08-19T11:35:02.126Z,32.3
2022-08-19T11:36:02.171Z,32.3
2022-08-19T11:37:02.027Z,32.3
2022-08-19T11:38:01.962Z,32.2
2022-08-19T11:39:01.954Z,32.5
2022-08-19T11:40:01.816Z,32.6
2022-08-19T11:41:01.937Z,32.4
2022-08-19T11:42:01.940Z,32.8
2022-08-19T11:43:01.757Z,32.6
2022-08-19T11:44:01.697Z,33
2022-08-19T11:45:01.647Z,33.2
2022-08-19T11:46:01.662Z,33.6
2022-08-19T11:47:08.687Z,33.4
2022-08-19T11:48:02.114Z,33.2
2022-08-19T11:49:02.056Z,33.3
2022-08-19T11:50:02.078Z,33.7
2022-08-19T11:51:01.903Z,34
2022-08-19T11:52:01.839Z,34
2022-08-19T11:53:01.853Z,34
2022-08-19T11:54:01.702Z,34
2022-08-19T11:55:01.657Z,34.1
2022-08-19T11:56:01.452Z,34.1
2022-08-19T11:57:02.458Z,33.6
2022-08-19T11:58:02.328Z,33.5
2022-08-19T11:59:02.285Z,33.5
2022-08-19T12:00:02.108Z,33.2
2022-08-19T12:01:01.532Z,33.3
2022-08-19T12:02:01.481Z,33.2
2022-08-19T12:03:02.422Z,33.1
2022-08-19T12:04:02.376Z,33
2022-08-19T12:05:01.494Z,32.4
2022-08-19T12:06:01.389Z,32.4
2022-08-19T12:07:02.397Z,32.6
2022-08-19T12:08:02.237Z,32.3
2022-08-19T12:09:02.254Z,32.3
2022-08-19T12:10:02.232Z,32.1
2022-08-19T12:11:02.326Z,32.3
2022-08-19T12:12:02.299Z,32.1
2022-08-19T12:13:02.163Z,32.1
2022-08-19T12:14:02.211Z,32.2
2022-08-19T12:15:02.079Z,32.3
2022-08-19T12:16:01.363Z,32.2
2022-08-19T12:17:02.375Z,32.1
2022-08-19T12:18:02.222Z,32.1
2022-08-19T12:19:02.356Z,32.1
2022-08-19T12:20:02.388Z,32.1
2022-08-19T12:21:02.328Z,32.1
2022-08-19T12:22:02.305Z,32.1
2022-08-19T12:23:02.163Z,32.1
2022-08-19T12:24:02.159Z,32.1
2022-08-19T12:25:02.006Z,32.2
2022-08-19T12:26:01.893Z,32.3
2022-08-19T12:27:03.043Z,32.3
2022-08-19T12:28:02.338Z,32.4
2022-08-19T12:29:01.436Z,32.5
2022-08-19T12:30:02.430Z,32.5
2022-08-19T12:31:01.560Z,32.5
2022-08-19T12:32:01.544Z,32.6
2022-08-19T12:33:01.714Z,32.4
2022-08-19T12:34:01.545Z,32.5
2022-08-19T12:35:02.174Z,32.7
2022-08-19T12:36:02.028Z,32.8
2022-08-19T12:37:01.983Z,32.8
2022-08-19T12:38:02.131Z,32.8
2022-08-19T12:39:01.453Z,32.7
2022-08-19T12:40:02.451Z,32.5
2022-08-19T12:41:01.666Z,32.4
2022-08-19T12:42:01.648Z,32.5
2022-08-19T12:43:01.448Z,32.4
2022-08-19T12:44:01.469Z,32.4
2022-08-19T12:45:02.378Z,32.6
2022-08-19T12:46:01.791Z,32.6
2022-08-19T12:47:01.667Z,32.6
2022-08-19T12:48:01.874Z,32.5
2022-08-19T12:49:01.673Z,32.7
2022-08-19T12:50:05.372Z,32.7
2022-08-19T12:51:01.812Z,32.7
2022-08-19T12:52:01.791Z,32.8
2022-08-19T12:53:01.783Z,32.8
2022-08-19T12:54:01.769Z,32.9
2022-08-19T12:55:01.571Z,32.8
2022-08-19T12:56:01.531Z,32.6
2022-08-19T12:57:01.366Z,32.7
2022-08-19T12:58:02.366Z,32.8
2022-08-19T12:59:02.195Z,32.9
2022-08-19T13:00:02.173Z,33
2022-08-19T13:01:02.161Z,32.9
2022-08-19T13:02:02.331Z,33
2022-08-19T13:03:02.366Z,33.1
2022-08-19T13:04:02.197Z,33.2
2022-08-19T13:05:02.181Z,33.6
2022-08-19T13:06:02.448Z,33.6
2022-08-19T13:07:02.300Z,33.6
2022-08-19T13:08:02.300Z,33.9
2022-08-19T13:09:02.129Z,33.9
2022-08-19T13:10:02.148Z,34
2022-08-19T13:11:01.990Z,33.8
2022-08-19T13:12:01.974Z,34.2
2022-08-19T13:13:01.883Z,34.5
2022-08-19T13:14:01.771Z,34.5
2022-08-19T13:15:01.700Z,34.6
2022-08-19T13:16:02.211Z,34.3
2022-08-19T13:17:02.208Z,34.1
2022-08-19T13:18:02.047Z,34.2
2022-08-19T13:19:02.129Z,34.1
2022-08-19T13:20:01.963Z,34.3
2022-08-19T13:21:01.865Z,33.9
2022-08-19T13:22:01.768Z,34.1
2022-08-19T13:23:01.655Z,33.9
2022-08-19T13:24:01.551Z,33.8